sensor_id;sensor_type;location;lat;lon;timestamp;pressure;altitude;pressure_sealevel;temperature;humidity
58843;BME280;44614;54.356;10.100;2023-04-05T00:01:12;102398.09;;;-0.09;66.82
58843;BME280;44614;54.356;10.100;2023-04-05T00:03:37;102379.06;;;-0.19;67.06
58843;BME280;44614;54.356;10.100;2023-04-05T00:06:04;102384.84;;;-0.12;67.10
58843;BME280;44614;54.356;10.100;2023-04-05T00:08:30;102386.81;;;-0.14;67.38
58843;BME280;44614;54.356;10.100;2023-04-05T00:10:56;102397.84;;;-0.17;67.59
58843;BME280;44614;54.356;10.100;2023-04-05T00:13:21;102396.34;;;-0.21;67.72
58843;BME280;44614;54.356;10.100;2023-04-05T00:15:48;102399.13;;;-0.23;68.10
58843;BME280;44614;54.356;10.100;2023-04-05T00:18:14;102395.56;;;-0.23;68.09
58843;BME280;44614;54.356;10.100;2023-04-05T00:20:52;102351.75;;;-0.51;67.93
58843;BME280;44614;54.356;10.100;2023-04-05T00:23:18;102356.72;;;-0.45;68.23
58843;BME280;44614;54.356;10.100;2023-04-05T00:25:45;102369.41;;;-0.34;68.50
58843;BME280;44614;54.356;10.100;2023-04-05T00:28:11;102346.13;;;-0.48;68.29
58843;BME280;44614;54.356;10.100;2023-04-05T00:30:37;102378.88;;;-0.29;68.49
58843;BME280;44614;54.356;10.100;2023-04-05T00:33:02;102361.31;;;-0.34;68.50
58843;BME280;44614;54.356;10.100;2023-04-05T00:35:28;102380.81;;;-0.31;68.74
58843;BME280;44614;54.356;10.100;2023-04-05T00:37:54;102370.34;;;-0.35;68.92
58843;BME280;44614;54.356;10.100;2023-04-05T00:40:19;102366.94;;;-0.37;69.39
58843;BME280;44614;54.356;10.100;2023-04-05T00:42:45;102367.78;;;-0.37;69.40
58843;BME280;44614;54.356;10.100;2023-04-05T00:45:10;102361.53;;;-0.37;69.33
58843;BME280;44614;54.356;10.100;2023-04-05T00:47:35;102366.81;;;-0.36;69.14
58843;BME280;44614;54.356;10.100;2023-04-05T00:50:02;102345.91;;;-0.45;69.21
58843;BME280;44614;54.356;10.100;2023-04-05T00:52:27;102312.78;;;-0.71;69.57
58843;BME280;44614;54.356;10.100;2023-04-05T00:54:53;102358.44;;;-0.44;69.72
58843;BME280;44614;54.356;10.100;2023-04-05T00:57:18;102359.63;;;-0.48;69.94
58843;BME280;44614;54.356;10.100;2023-04-05T00:59:44;102364.25;;;-0.50;70.34
58843;BME280;44614;54.356;10.100;2023-04-05T01:02:27;102362.38;;;-0.61;70.80
58843;BME280;44614;54.356;10.100;2023-04-05T01:04:58;102366.38;;;-0.66;71.45
58843;BME280;44614;54.356;10.100;2023-04-05T01:07:30;102369.22;;;-0.68;72.04
58843;BME280;44614;54.356;10.100;2023-04-05T01:10:01;102377.38;;;-0.69;72.54
58843;BME280;44614;54.356;10.100;2023-04-05T01:12:31;102372.13;;;-0.71;72.55
58843;BME280;44614;54.356;10.100;2023-04-05T01:14:58;102328.16;;;-0.97;72.71
58843;BME280;44614;54.356;10.100;2023-04-05T01:17:26;102367.38;;;-0.80;73.67
58843;BME280;44614;54.356;10.100;2023-04-05T01:20:03;102356.28;;;-0.88;74.85
58843;BME280;44614;54.356;10.100;2023-04-05T01:23:11;102366.13;;;-0.87;74.50
58843;BME280;44614;54.356;10.100;2023-04-05T01:32:06;102361.97;;;-0.67;72.87
58843;BME280;44614;54.356;10.100;2023-04-05T01:36:42;102352.81;;;-0.65;72.94
58843;BME280;44614;54.356;10.100;2023-04-05T01:39:12;102349.13;;;-0.64;72.77
58843;BME280;44614;54.356;10.100;2023-04-05T01:41:38;102356.09;;;-0.61;72.80
58843;BME280;44614;54.356;10.100;2023-04-05T01:44:04;102344.34;;;-0.60;73.27
58843;BME280;44614;54.356;10.100;2023-04-05T01:46:30;102341.03;;;-0.64;74.07
58843;BME280;44614;54.356;10.100;2023-04-05T01:48:55;102347.16;;;-0.62;74.42
58843;BME280;44614;54.356;10.100;2023-04-05T01:51:20;102349.75;;;-0.60;74.17
58843;BME280;44614;54.356;10.100;2023-04-05T01:53:46;102344.00;;;-0.56;74.19
58843;BME280;44614;54.356;10.100;2023-04-05T01:56:11;102330.66;;;-0.57;74.54
58843;BME280;44614;54.356;10.100;2023-04-05T01:58:36;102331.72;;;-0.60;75.78
58843;BME280;44614;54.356;10.100;2023-04-05T02:01:02;102331.72;;;-0.60;75.74
58843;BME280;44614;54.356;10.100;2023-04-05T02:03:28;102339.06;;;-0.62;75.93
58843;BME280;44614;54.356;10.100;2023-04-05T02:05:53;102326.78;;;-0.66;75.94
58843;BME280;44614;54.356;10.100;2023-04-05T02:08:18;102336.78;;;-0.55;76.17
58843;BME280;44614;54.356;10.100;2023-04-05T02:10:44;102304.97;;;-0.63;76.06
58843;BME280;44614;54.356;10.100;2023-04-05T02:13:10;102329.31;;;-0.52;76.19
58843;BME280;44614;54.356;10.100;2023-04-05T02:15:36;102325.63;;;-0.51;76.77
58843;BME280;44614;54.356;10.100;2023-04-05T02:18:01;102291.59;;;-0.64;76.59
58843;BME280;44614;54.356;10.100;2023-04-05T02:20:28;102316.31;;;-0.46;76.53
58843;BME280;44614;54.356;10.100;2023-04-05T02:22:54;102306.38;;;-0.46;76.36
58843;BME280;44614;54.356;10.100;2023-04-05T02:25:20;102309.84;;;-0.44;76.33
58843;BME280;44614;54.356;10.100;2023-04-05T02:27:46;102308.75;;;-0.41;76.08
58843;BME280;44614;54.356;10.100;2023-04-05T02:30:11;102320.19;;;-0.38;75.57
58843;BME280;44614;54.356;10.100;2023-04-05T02:32:40;102313.81;;;-0.37;76.33
58843;BME280;44614;54.356;10.100;2023-04-05T02:35:11;102278.84;;;-0.62;76.66
58843;BME280;44614;54.356;10.100;2023-04-05T02:37:37;102318.44;;;-0.39;76.75
58843;BME280;44614;54.356;10.100;2023-04-05T02:40:06;102317.34;;;-0.36;76.42
58843;BME280;44614;54.356;10.100;2023-04-05T02:42:33;102314.53;;;-0.35;76.44
58843;BME280;44614;54.356;10.100;2023-04-05T02:44:59;102309.91;;;-0.33;76.37
58843;BME280;44614;54.356;10.100;2023-04-05T02:47:24;102310.63;;;-0.31;77.04
58843;BME280;44614;54.356;10.100;2023-04-05T02:49:49;102306.34;;;-0.33;77.93
58843;BME280;44614;54.356;10.100;2023-04-05T02:52:15;102298.47;;;-0.36;78.77
58843;BME280;44614;54.356;10.100;2023-04-05T02:54:41;102292.94;;;-0.35;78.78
58843;BME280;44614;54.356;10.100;2023-04-05T02:57:07;102295.41;;;-0.32;78.11
58843;BME280;44614;54.356;10.100;2023-04-05T02:59:36;102254.59;;;-0.51;77.40
58843;BME280;44614;54.356;10.100;2023-04-05T03:02:03;102293.25;;;-0.27;77.45
58843;BME280;44614;54.356;10.100;2023-04-05T03:04:28;102295.69;;;-0.23;77.65
58843;BME280;44614;54.356;10.100;2023-04-05T03:06:54;102293.75;;;-0.21;77.75
58843;BME280;44614;54.356;10.100;2023-04-05T03:09:21;102282.53;;;-0.28;77.75
58843;BME280;44614;54.356;10.100;2023-04-05T03:11:46;102287.59;;;-0.23;77.51
58843;BME280;44614;54.356;10.100;2023-04-05T03:14:11;102294.25;;;-0.16;77.77
58843;BME280;44614;54.356;10.100;2023-04-05T03:16:37;102281.09;;;-0.21;77.70
58843;BME280;44614;54.356;10.100;2023-04-05T03:19:05;102265.47;;;-0.29;77.43
58843;BME280;44614;54.356;10.100;2023-04-05T03:21:31;102254.06;;;-0.32;77.76
58843;BME280;44614;54.356;10.100;2023-04-05T03:23:58;102187.81;;;-0.71;78.00
58843;BME280;44614;54.356;10.100;2023-04-05T03:26:24;102295.63;;;-0.11;78.25
58843;BME280;44614;54.356;10.100;2023-04-05T03:28:49;102292.78;;;-0.09;77.96
58843;BME280;44614;54.356;10.100;2023-04-05T03:31:15;102289.97;;;-0.08;77.86
58843;BME280;44614;54.356;10.100;2023-04-05T03:33:41;102271.66;;;-0.15;77.99
58843;BME280;44614;54.356;10.100;2023-04-05T03:36:07;102246.47;;;-0.27;78.90
58843;BME280;44614;54.356;10.100;2023-04-05T03:38:33;102282.00;;;-0.09;79.88
58843;BME280;44614;54.356;10.100;2023-04-05T03:40:58;102278.66;;;-0.13;79.33
58843;BME280;44614;54.356;10.100;2023-04-05T03:43:24;102285.53;;;-0.09;79.32
58843;BME280;44614;54.356;10.100;2023-04-05T03:45:49;102281.75;;;-0.06;79.32
58843;BME280;44614;54.356;10.100;2023-04-05T03:48:15;102271.06;;;-0.08;78.86
58843;BME280;44614;54.356;10.100;2023-04-05T03:50:47;102263.09;;;-0.09;78.84
58843;BME280;44614;54.356;10.100;2023-04-05T03:53:12;102269.97;;;-0.05;79.00
58843;BME280;44614;54.356;10.100;2023-04-05T03:55:38;102280.41;;;-0.01;78.58
58843;BME280;44614;54.356;10.100;2023-04-05T03:58:04;102276.84;;;-0.01;78.82
58843;BME280;44614;54.356;10.100;2023-04-05T04:00:29;102255.56;;;-0.17;78.90
58843;BME280;44614;54.356;10.100;2023-04-05T04:02:55;102270.81;;;-0.05;79.05
58843;BME280;44614;54.356;10.100;2023-04-05T04:05:20;102276.34;;;-0.06;79.34
58843;BME280;44614;54.356;10.100;2023-04-05T04:07:46;102276.47;;;-0.08;79.47
58843;BME280;44614;54.356;10.100;2023-04-05T04:10:12;102240.34;;;-0.29;79.33
58843;BME280;44614;54.356;10.100;2023-04-05T04:12:38;102271.41;;;-0.12;79.19
58843;BME280;44614;54.356;10.100;2023-04-05T04:15:04;102274.34;;;-0.15;79.04
58843;BME280;44614;54.356;10.100;2023-04-05T04:17:34;102253.94;;;-0.31;79.35
58843;BME280;44614;54.356;10.100;2023-04-05T04:20:00;102263.53;;;-0.27;80.65
58843;BME280;44614;54.356;10.100;2023-04-05T04:22:26;102264.00;;;-0.33;81.11
58843;BME280;44614;54.356;10.100;2023-04-05T04:24:59;102268.66;;;-0.35;81.08
58843;BME280;44614;54.356;10.100;2023-04-05T04:27:29;102266.94;;;-0.36;81.00
58843;BME280;44614;54.356;10.100;2023-04-05T04:29:56;102259.06;;;-0.39;81.05
58843;BME280;44614;54.356;10.100;2023-04-05T04:32:27;102267.28;;;-0.40;80.84
58843;BME280;44614;54.356;10.100;2023-04-05T04:35:12;102234.41;;;-0.69;81.03
58843;BME280;44614;54.356;10.100;2023-04-05T04:37:43;102272.28;;;-0.47;80.76
58843;BME280;44614;54.356;10.100;2023-04-05T04:40:13;102266.88;;;-0.47;80.73
58843;BME280;44614;54.356;10.100;2023-04-05T04:42:42;102268.72;;;-0.47;80.42
58843;BME280;44614;54.356;10.100;2023-04-05T04:45:14;102247.00;;;-0.57;80.51
58843;BME280;44614;54.356;10.100;2023-04-05T04:47:43;102261.09;;;-0.54;80.50
58843;BME280;44614;54.356;10.100;2023-04-05T04:50:09;102260.34;;;-0.56;80.27
58843;BME280;44614;54.356;10.100;2023-04-05T04:52:35;102255.75;;;-0.66;80.89
58843;BME280;44614;54.356;10.100;2023-04-05T04:55:01;102254.91;;;-0.67;81.62
58843;BME280;44614;54.356;10.100;2023-04-05T04:57:29;102260.66;;;-0.71;82.59
58843;BME280;44614;54.356;10.100;2023-04-05T04:59:55;102256.25;;;-0.72;82.71
58843;BME280;44614;54.356;10.100;2023-04-05T05:02:24;102263.34;;;-0.71;82.12
58843;BME280;44614;54.356;10.100;2023-04-05T05:04:50;102255.25;;;-0.71;82.20
58843;BME280;44614;54.356;10.100;2023-04-05T05:07:15;102249.31;;;-0.77;82.03
58843;BME280;44614;54.356;10.100;2023-04-05T05:09:42;102258.06;;;-0.73;82.16
58843;BME280;44614;54.356;10.100;2023-04-05T05:12:07;102249.09;;;-0.74;82.02
58843;BME280;44614;54.356;10.100;2023-04-05T05:14:32;102246.41;;;-0.74;82.16
58843;BME280;44614;54.356;10.100;2023-04-05T05:16:58;102253.63;;;-0.74;81.80
58843;BME280;44614;54.356;10.100;2023-04-05T05:19:23;102253.13;;;-0.79;82.06
58843;BME280;44614;54.356;10.100;2023-04-05T05:21:49;102252.28;;;-0.80;82.27
58843;BME280;44614;54.356;10.100;2023-04-05T05:24:14;102228.25;;;-0.95;82.20
58843;BME280;44614;54.356;10.100;2023-04-05T05:26:40;102250.78;;;-0.84;82.43
58843;BME280;44614;54.356;10.100;2023-04-05T05:29:06;102244.41;;;-0.83;82.22
58843;BME280;44614;54.356;10.100;2023-04-05T05:31:31;102237.31;;;-0.84;82.70
58843;BME280;44614;54.356;10.100;2023-04-05T05:33:58;102242.69;;;-0.84;84.26
58843;BME280;44614;54.356;10.100;2023-04-05T05:36:23;102244.41;;;-0.83;84.14
58843;BME280;44614;54.356;10.100;2023-04-05T05:38:50;102245.13;;;-0.81;84.11
58843;BME280;44614;54.356;10.100;2023-04-05T05:41:17;102231.38;;;-0.89;84.60
58843;BME280;44614;54.356;10.100;2023-04-05T05:43:42;102241.38;;;-0.78;84.27
58843;BME280;44614;54.356;10.100;2023-04-05T05:46:07;102217.66;;;-0.86;84.14
58843;BME280;44614;54.356;10.100;2023-04-05T05:48:33;102241.78;;;-0.71;83.62
58843;BME280;44614;54.356;10.100;2023-04-05T05:50:58;102239.81;;;-0.69;83.76
58843;BME280;44614;54.356;10.100;2023-04-05T05:53:33;102237.97;;;-0.69;83.19
58843;BME280;44614;54.356;10.100;2023-04-05T05:55:59;102242.03;;;-0.63;83.45
58843;BME280;44614;54.356;10.100;2023-04-05T05:58:24;102246.22;;;-0.59;83.22
58843;BME280;44614;54.356;10.100;2023-04-05T06:00:50;102239.50;;;-0.54;83.08
58843;BME280;44614;54.356;10.100;2023-04-05T06:03:21;102248.97;;;-0.48;83.33
58843;BME280;44614;54.356;10.100;2023-04-05T06:05:51;102240.44;;;-0.42;83.53
58843;BME280;44614;54.356;10.100;2023-04-05T06:08:17;102248.03;;;-0.36;84.37
58843;BME280;44614;54.356;10.100;2023-04-05T06:10:42;102245.84;;;-0.31;85.50
58843;BME280;44614;54.356;10.100;2023-04-05T06:13:07;102243.03;;;-0.29;87.32
58843;BME280;44614;54.356;10.100;2023-04-05T06:15:33;102244.50;;;-0.25;88.89
58843;BME280;44614;54.356;10.100;2023-04-05T06:17:58;102244.91;;;-0.18;88.00
58843;BME280;44614;54.356;10.100;2023-04-05T06:20:24;102235.34;;;-0.11;88.35
58843;BME280;44614;54.356;10.100;2023-04-05T06:22:49;102237.47;;;-0.04;87.68
58843;BME280;44614;54.356;10.100;2023-04-05T06:25:14;102239.56;;;0.04;87.75
58843;BME280;44614;54.356;10.100;2023-04-05T06:27:40;102239.81;;;0.12;87.46
58843;BME280;44614;54.356;10.100;2023-04-05T06:30:06;102251.34;;;0.14;88.12
58843;BME280;44614;54.356;10.100;2023-04-05T06:32:31;102252.34;;;0.24;88.50
58843;BME280;44614;54.356;10.100;2023-04-05T06:34:57;102243.00;;;0.29;88.10
58843;BME280;44614;54.356;10.100;2023-04-05T06:37:22;102242.78;;;0.43;88.32
58843;BME280;44614;54.356;10.100;2023-04-05T06:39:47;102228.28;;;0.44;88.57
58843;BME280;44614;54.356;10.100;2023-04-05T06:42:13;102236.25;;;0.57;88.65
58843;BME280;44614;54.356;10.100;2023-04-05T06:44:38;102236.13;;;0.58;88.51
58843;BME280;44614;54.356;10.100;2023-04-05T06:47:03;102262.53;;;0.77;87.84
58843;BME280;44614;54.356;10.100;2023-04-05T06:49:29;102261.91;;;0.85;88.08
58843;BME280;44614;54.356;10.100;2023-04-05T06:51:54;102248.63;;;0.93;88.61
58843;BME280;44614;54.356;10.100;2023-04-05T06:54:19;102249.84;;;1.00;88.37
58843;BME280;44614;54.356;10.100;2023-04-05T06:56:47;102242.81;;;1.09;88.30
58843;BME280;44614;54.356;10.100;2023-04-05T06:59:12;102239.47;;;1.16;89.04
58843;BME280;44614;54.356;10.100;2023-04-05T07:01:38;102225.94;;;1.16;89.54
58843;BME280;44614;54.356;10.100;2023-04-05T07:04:03;102232.78;;;1.32;88.44
58843;BME280;44614;54.356;10.100;2023-04-05T07:06:28;102137.50;;;0.85;88.01
58843;BME280;44614;54.356;10.100;2023-04-05T07:08:54;102238.25;;;1.53;87.84
58843;BME280;44614;54.356;10.100;2023-04-05T07:11:19;102234.88;;;1.60;87.84
58843;BME280;44614;54.356;10.100;2023-04-05T07:13:45;102202.16;;;1.52;87.92
58843;BME280;44614;54.356;10.100;2023-04-05T07:16:11;102228.47;;;1.82;87.48
58843;BME280;44614;54.356;10.100;2023-04-05T07:18:36;102237.38;;;1.94;87.22
58843;BME280;44614;54.356;10.100;2023-04-05T07:21:01;102228.72;;;2.00;87.75
58843;BME280;44614;54.356;10.100;2023-04-05T07:23:28;102219.53;;;2.12;86.98
58843;BME280;44614;54.356;10.100;2023-04-05T07:25:59;102223.56;;;2.18;88.44
58843;BME280;44614;54.356;10.100;2023-04-05T07:28:24;102213.75;;;2.27;87.87
58843;BME280;44614;54.356;10.100;2023-04-05T07:30:50;102198.19;;;2.29;87.42
58843;BME280;44614;54.356;10.100;2023-04-05T07:41:16;102225.13;;;2.91;85.35
58843;BME280;44614;54.356;10.100;2023-04-05T07:43:44;102226.13;;;3.00;85.86
58843;BME280;44614;54.356;10.100;2023-04-05T07:46:09;102205.44;;;2.99;85.37
58843;BME280;44614;54.356;10.100;2023-04-05T07:48:34;102218.00;;;3.20;85.82
58843;BME280;44614;54.356;10.100;2023-04-05T07:51:04;102228.91;;;3.29;85.03
58843;BME280;44614;54.356;10.100;2023-04-05T07:53:30;102227.59;;;3.43;85.06
58843;BME280;44614;54.356;10.100;2023-04-05T07:55:55;102213.75;;;3.46;84.41
58843;BME280;44614;54.356;10.100;2023-04-05T07:58:21;102197.44;;;3.56;84.27
58843;BME280;44614;54.356;10.100;2023-04-05T08:00:47;102200.59;;;3.71;83.61
58843;BME280;44614;54.356;10.100;2023-04-05T08:03:13;102222.69;;;3.95;83.54
58843;BME280;44614;54.356;10.100;2023-04-05T08:05:38;102207.41;;;3.94;83.18
58843;BME280;44614;54.356;10.100;2023-04-05T08:08:03;102220.22;;;4.11;83.01
58843;BME280;44614;54.356;10.100;2023-04-05T08:10:29;102213.31;;;4.27;83.13
58843;BME280;44614;54.356;10.100;2023-04-05T08:12:54;102215.84;;;4.38;82.62
58843;BME280;44614;54.356;10.100;2023-04-05T08:15:19;102208.50;;;4.48;82.52
58843;BME280;44614;54.356;10.100;2023-04-05T08:17:45;102216.41;;;4.69;82.00
58843;BME280;44614;54.356;10.100;2023-04-05T08:20:11;102208.78;;;4.82;81.58
58843;BME280;44614;54.356;10.100;2023-04-05T08:22:36;102211.84;;;4.97;80.94
58843;BME280;44614;54.356;10.100;2023-04-05T08:25:01;102208.66;;;5.02;80.66
58843;BME280;44614;54.356;10.100;2023-04-05T08:27:27;102211.72;;;5.17;80.74
58843;BME280;44614;54.356;10.100;2023-04-05T08:29:52;102200.81;;;5.17;80.47
58843;BME280;44614;54.356;10.100;2023-04-05T08:32:17;102220.97;;;5.24;79.87
58843;BME280;44614;54.356;10.100;2023-04-05T08:34:43;102213.34;;;5.27;79.99
58843;BME280;44614;54.356;10.100;2023-04-05T08:37:08;102209.06;;;5.25;79.71
58843;BME280;44614;54.356;10.100;2023-04-05T08:39:34;102221.84;;;5.42;79.65
58843;BME280;44614;54.356;10.100;2023-04-05T08:42:25;102221.06;;;5.50;79.53
58843;BME280;44614;54.356;10.100;2023-04-05T08:44:54;102210.53;;;5.55;79.43
58843;BME280;44614;54.356;10.100;2023-04-05T08:47:22;102207.28;;;5.69;79.05
58843;BME280;44614;54.356;10.100;2023-04-05T08:49:47;102214.47;;;5.78;79.29
58843;BME280;44614;54.356;10.100;2023-04-05T08:52:13;102205.88;;;5.91;79.40
58843;BME280;44614;54.356;10.100;2023-04-05T08:54:39;102211.19;;;6.10;78.78
58843;BME280;44614;54.356;10.100;2023-04-05T08:57:06;102183.16;;;6.00;78.85
58843;BME280;44614;54.356;10.100;2023-04-05T08:59:32;102199.13;;;6.21;78.82
58843;BME280;44614;54.356;10.100;2023-04-05T09:02:03;102198.00;;;6.32;78.01
58843;BME280;44614;54.356;10.100;2023-04-05T09:04:31;102208.84;;;6.50;77.96
58843;BME280;44614;54.356;10.100;2023-04-05T09:07:00;102205.97;;;6.59;77.47
58843;BME280;44614;54.356;10.100;2023-04-05T09:09:31;102196.44;;;6.64;77.27
58843;BME280;44614;54.356;10.100;2023-04-05T09:11:56;102176.66;;;6.62;77.33
58843;BME280;44614;54.356;10.100;2023-04-05T09:14:22;102186.91;;;6.68;76.13
58843;BME280;44614;54.356;10.100;2023-04-05T09:16:48;102183.38;;;6.75;76.78
58843;BME280;44614;54.356;10.100;2023-04-05T09:19:13;102179.16;;;6.97;76.76
58843;BME280;44614;54.356;10.100;2023-04-05T09:22:04;102189.97;;;7.15;74.09
58843;BME280;44614;54.356;10.100;2023-04-05T09:24:37;102188.72;;;7.09;73.56
58843;BME280;44614;54.356;10.100;2023-04-05T09:27:08;102179.56;;;7.27;73.98
58843;BME280;44614;54.356;10.100;2023-04-05T09:29:34;102182.47;;;7.33;73.15
58843;BME280;44614;54.356;10.100;2023-04-05T09:32:03;102181.13;;;7.46;72.12
58843;BME280;44614;54.356;10.100;2023-04-05T09:34:30;102174.28;;;7.58;71.45
58843;BME280;44614;54.356;10.100;2023-04-05T09:36:59;102164.72;;;7.62;70.99
58843;BME280;44614;54.356;10.100;2023-04-05T09:39:30;102169.66;;;7.91;70.60
58843;BME280;44614;54.356;10.100;2023-04-05T09:42:06;102167.06;;;8.06;70.55
58843;BME280;44614;54.356;10.100;2023-04-05T09:44:56;102158.28;;;8.27;68.98
58843;BME280;44614;54.356;10.100;2023-04-05T09:47:25;102160.81;;;8.37;67.83
58843;BME280;44614;54.356;10.100;2023-04-05T09:49:55;102151.09;;;8.26;67.26
58843;BME280;44614;54.356;10.100;2023-04-05T09:52:26;102161.53;;;8.22;65.86
58843;BME280;44614;54.356;10.100;2023-04-05T09:54:55;102154.72;;;8.18;66.42
58843;BME280;44614;54.356;10.100;2023-04-05T09:57:24;102157.78;;;8.15;66.29
58843;BME280;44614;54.356;10.100;2023-04-05T09:59:54;102130.66;;;8.05;65.45
58843;BME280;44614;54.356;10.100;2023-04-05T10:02:24;102147.03;;;8.14;66.05
58843;BME280;44614;54.356;10.100;2023-04-05T10:04:50;102141.25;;;8.00;64.80
58843;BME280;44614;54.356;10.100;2023-04-05T10:07:17;102141.56;;;8.14;65.69
58843;BME280;44614;54.356;10.100;2023-04-05T10:09:46;102147.66;;;8.24;64.16
58843;BME280;44614;54.356;10.100;2023-04-05T10:12:20;102144.19;;;8.46;64.34
58843;BME280;44614;54.356;10.100;2023-04-05T10:14:48;102134.59;;;8.59;64.07
58843;BME280;44614;54.356;10.100;2023-04-05T10:17:22;102136.28;;;8.60;62.97
58843;BME280;44614;54.356;10.100;2023-04-05T10:22:47;102129.16;;;8.82;61.64
58843;BME280;44614;54.356;10.100;2023-04-05T10:30:50;102132.91;;;8.81;62.55
58843;BME280;44614;54.356;10.100;2023-04-05T10:33:32;102122.78;;;8.89;62.44
58843;BME280;44614;54.356;10.100;2023-04-05T10:38:45;102117.28;;;8.89;63.03
58843;BME280;44614;54.356;10.100;2023-04-05T10:41:14;102122.53;;;8.99;62.31
58843;BME280;44614;54.356;10.100;2023-04-05T10:43:39;102110.03;;;8.96;60.67
58843;BME280;44614;54.356;10.100;2023-04-05T10:46:06;102108.38;;;8.87;61.68
58843;BME280;44614;54.356;10.100;2023-04-05T10:50:57;102113.25;;;8.77;61.32
58843;BME280;44614;54.356;10.100;2023-04-05T10:53:24;102101.88;;;8.57;61.72
58843;BME280;44614;54.356;10.100;2023-04-05T10:55:50;102110.59;;;8.61;62.12
58843;BME280;44614;54.356;10.100;2023-04-05T10:58:16;102103.28;;;8.53;60.68
58843;BME280;44614;54.356;10.100;2023-04-05T11:00:42;102105.56;;;8.41;60.32
58843;BME280;44614;54.356;10.100;2023-04-05T11:03:09;102091.03;;;8.33;61.10
58843;BME280;44614;54.356;10.100;2023-04-05T11:05:35;102103.09;;;8.54;61.15
58843;BME280;44614;54.356;10.100;2023-04-05T11:08:04;102100.34;;;8.54;61.59
58843;BME280;44614;54.356;10.100;2023-04-05T11:10:31;102108.09;;;8.51;61.17
58843;BME280;44614;54.356;10.100;2023-04-05T11:13:01;102105.81;;;8.54;61.03
58843;BME280;44614;54.356;10.100;2023-04-05T11:20:52;102093.50;;;8.90;59.52
58843;BME280;44614;54.356;10.100;2023-04-05T11:23:21;102095.75;;;8.86;58.99
58843;BME280;44614;54.356;10.100;2023-04-05T11:25:54;102093.97;;;8.70;58.54
58843;BME280;44614;54.356;10.100;2023-04-05T11:28:22;102092.13;;;8.63;59.92
58843;BME280;44614;54.356;10.100;2023-04-05T11:30:52;102094.63;;;8.72;58.38
58843;BME280;44614;54.356;10.100;2023-04-05T11:33:37;102076.66;;;8.70;59.04
58843;BME280;44614;54.356;10.100;2023-04-05T11:36:03;102080.50;;;8.84;58.39
58843;BME280;44614;54.356;10.100;2023-04-05T11:38:28;102067.72;;;8.76;54.71
58843;BME280;44614;54.356;10.100;2023-04-05T11:41:11;102078.94;;;8.89;55.61
58843;BME280;44614;54.356;10.100;2023-04-05T11:43:37;102075.47;;;8.95;56.78
58843;BME280;44614;54.356;10.100;2023-04-05T11:46:03;102078.19;;;8.95;55.88
58843;BME280;44614;54.356;10.100;2023-04-05T11:48:29;102081.44;;;8.99;56.80
58843;BME280;44614;54.356;10.100;2023-04-05T11:50:56;102082.75;;;8.80;56.04
58843;BME280;44614;54.356;10.100;2023-04-05T11:53:21;102084.28;;;8.83;57.24
58843;BME280;44614;54.356;10.100;2023-04-05T11:55:49;102075.56;;;8.79;51.05
58843;BME280;44614;54.356;10.100;2023-04-05T11:58:24;102084.00;;;8.69;52.38
58843;BME280;44614;54.356;10.100;2023-04-05T12:01:00;102070.22;;;8.63;56.62
58843;BME280;44614;54.356;10.100;2023-04-05T12:03:27;102059.19;;;8.31;54.10
58843;BME280;44614;54.356;10.100;2023-04-05T12:05:57;102049.16;;;8.24;56.33
58843;BME280;44614;54.356;10.100;2023-04-05T12:08:23;102061.22;;;8.46;55.80
58843;BME280;44614;54.356;10.100;2023-04-05T12:11:01;102059.25;;;8.23;52.94
58843;BME280;44614;54.356;10.100;2023-04-05T12:13:32;102061.81;;;8.25;55.32
58843;BME280;44614;54.356;10.100;2023-04-05T12:15:58;102056.72;;;8.53;54.28
58843;BME280;44614;54.356;10.100;2023-04-05T12:18:25;102051.22;;;8.61;53.89
58843;BME280;44614;54.356;10.100;2023-04-05T12:20:54;102051.81;;;8.48;53.73
58843;BME280;44614;54.356;10.100;2023-04-05T12:23:23;102061.09;;;8.31;51.65
58843;BME280;44614;54.356;10.100;2023-04-05T12:25:50;102040.38;;;7.97;55.18
58843;BME280;44614;54.356;10.100;2023-04-05T12:28:15;102036.50;;;8.23;55.39
58843;BME280;44614;54.356;10.100;2023-04-05T12:30:56;102055.28;;;9.11;55.27
58843;BME280;44614;54.356;10.100;2023-04-05T12:33:32;102044.91;;;9.59;53.23
58843;BME280;44614;54.356;10.100;2023-04-05T12:36:00;102065.53;;;9.55;48.71
58843;BME280;44614;54.356;10.100;2023-04-05T12:38:28;102060.22;;;9.53;54.45
58843;BME280;44614;54.356;10.100;2023-04-05T12:40:58;102039.16;;;9.84;54.14
58843;BME280;44614;54.356;10.100;2023-04-05T12:43:24;102043.69;;;10.21;52.28
58843;BME280;44614;54.356;10.100;2023-04-05T12:45:52;102044.34;;;10.74;52.86
58843;BME280;44614;54.356;10.100;2023-04-05T12:48:21;102044.84;;;11.49;52.79
58843;BME280;44614;54.356;10.100;2023-04-05T12:50:49;102038.06;;;11.79;47.61
58843;BME280;44614;54.356;10.100;2023-04-05T12:53:22;102037.91;;;11.31;52.95
58843;BME280;44614;54.356;10.100;2023-04-05T12:55:53;102043.56;;;11.79;53.45
58843;BME280;44614;54.356;10.100;2023-04-05T12:58:20;102028.81;;;11.87;51.86
58843;BME280;44614;54.356;10.100;2023-04-05T13:00:47;102041.59;;;12.01;48.01
58843;BME280;44614;54.356;10.100;2023-04-05T13:03:19;102034.00;;;11.47;49.16
58843;BME280;44614;54.356;10.100;2023-04-05T13:05:46;102027.97;;;10.87;53.26
58843;BME280;44614;54.356;10.100;2023-04-05T13:08:12;102015.47;;;10.42;51.02
58843;BME280;44614;54.356;10.100;2023-04-05T13:10:38;102028.66;;;10.32;48.26
58843;BME280;44614;54.356;10.100;2023-04-05T13:13:03;102022.03;;;9.96;50.39
58843;BME280;44614;54.356;10.100;2023-04-05T13:15:29;102024.47;;;10.06;52.11
58843;BME280;44614;54.356;10.100;2023-04-05T13:17:55;102025.63;;;9.97;46.50
58843;BME280;44614;54.356;10.100;2023-04-05T13:20:21;102019.09;;;9.53;53.87
58843;BME280;44614;54.356;10.100;2023-04-05T13:22:46;102004.16;;;9.71;51.31